Scottish Airport Reports

Civil airfields updated at H+20 and H+50
RAF airfields updated at H+50 only

EGPD - Aberdeen
Distance from station: NNE 19mi, 31km
Updated: 29/09/2020 10:50
Clear
Clear
 Wind from varies
Wind: varies 1 mph , 2 km/h
Temperature: 11°C
Dew Point: 6°C
Humidity: 72%
Barometer: 1015 hPa
Clouds: Clear
Visibility: 6 miles , 10 km
2020/09/29 09:50 EGPD 290950Z AUTO VRB01KT 9999 NCD 11/06 Q1015 NOSIG
EGPN - Dundee
Distance from station: SW 41mi, 66km
Updated: 29/09/2020 10:50
Few Clouds
Few Clouds
 Wind from WSW
Wind: WSW 3 mph , 6 km/h
Temperature: 10°C
Dew Point: 8°C
Humidity: 88%
Barometer: 1015 hPa
Clouds: Few Clouds
Visibility: 6 miles , 10 km
Cloud details: Few Clouds 2000 ft
2020/09/29 09:50 EGPN 290950Z 24003KT 9999 FEW020 10/08 Q1015
 
EGQS - RAF Lossiemouth
Distance from station: NNW 63mi, 102km
Updated: 29/09/2020 09:50
Clear
Clear
 Wind from S
Wind: S 2 mph , 4 km/h
Temperature: 8°C
Dew Point: 7°C
Humidity: 93%
Barometer: 1014 hPa
Clouds: Clear
Visibility: 6 miles , 10 km
2020/09/29 08:50 EGQS 290850Z AUTO 19002KT 9999 // NCD 08/07 Q1014
EGPE - Inverness
Distance from station: WNW 73mi, 117km
Updated: 29/09/2020 10:50
Few Clouds
Few Clouds
 Wind from W
Wind: W 3 mph , 6 km/h
Temperature: 11°C
Dew Point: 8°C
Humidity: 82%
Barometer: 1014 hPa
Clouds: Few Clouds
Visibility: 6 miles , 10 km
Cloud details: Few Clouds 3500 ft
2020/09/29 09:50 EGPE 290950Z 28003KT 9999 FEW035 11/08 Q1014
 
EGPH - Edinburgh
Distance from station: SSW 77mi, 125km
Updated: 29/09/2020 10:50
Few Clouds
Few Clouds
 Wind from WSW
Wind: WSW 7 mph , 11 km/h
Temperature: 12°C
Dew Point: 10°C
Humidity: 88%
Barometer: 1016 hPa
Clouds: Few Clouds
Visibility: 6 miles , 10 km
Cloud details: Few Clouds 2000 ft
2020/09/29 09:50 EGPH 290950Z 25006KT 9999 FEW020 12/10 Q1016
EGPC - Wick
Distance from station: NNW 107mi, 172km
Updated: 29/09/2020 10:50
Few Clouds
Few Clouds
 Wind from varies
Wind: varies 1 mph , 2 km/h
Temperature: 11°C
Dew Point: 7°C
Humidity: 77%
Barometer: 1014 hPa
Clouds: Few Clouds
Visibility: 6 miles , 10 km
Cloud details: Few Clouds 2400 ft
2020/09/29 09:50 EGPC 290950Z VRB01KT 9999 FEW024 11/07 Q1014
 
EGPF - Glasgow
Distance from station: SW 107mi, 172km
Updated: 29/09/2020 10:50
Overcast
Overcast
 Wind from NE
Wind: NE 6 mph , 9 km/h
Temperature: 9°C
Wind Chill: 7°C
Dew Point: 8°C
Humidity: 94%
Barometer: 1016 hPa
Clouds: Overcast
Visibility: 4 miles , 7 km
Cloud details: Mostly cloudy 400 ft
Overcast 700 ft
2020/09/29 09:50 EGPF 290950Z AUTO 04005KT 7000 BKN004 OVC007 09/08 Q1016
EGPK - Prestwick
Distance from station: SW 130mi, 209km
Updated: 29/09/2020 10:50
Few Clouds
Few Clouds
 Wind from S
Wind: S 7 mph , 11 km/h
Temperature: 13°C
Dew Point: 10°C
Humidity: 82%
Barometer: 1016 hPa
Clouds: Few Clouds
Visibility: 6 miles , 10 km
Cloud details: Few Clouds 1300 ft
2020/09/29 09:50 EGPK 290950Z 19006KT 9999 FEW013 13/10 Q1016
 
EGPA - Kirkwall, Orkney
Distance from station: N 140mi, 225km
Updated: 29/09/2020 10:50
Few Clouds
Few Clouds
 Wind from SW
Wind: SW 6 mph , 9 km/h
Temperature: 11°C
Dew Point: 8°C
Humidity: 82%
Barometer: 1014 hPa
Clouds: Few Clouds
Visibility: 6 miles , 10 km
Cloud details: Few Clouds 3500 ft
2020/09/29 09:50 EGPA 290950Z 23005KT 9999 FEW035 11/08 Q1014
EGPO - Stornoway, Outer Hebrides
Distance from station: WNW 169mi, 273km
Updated: 29/09/2020 10:50
Nearby showers, Few clouds
Nearby showers, Few clouds
 Wind from S
Wind: S 14 mph , 22 km/h
Temperature: 12°C
Dew Point: 10°C
Humidity: 88%
Barometer: 1012 hPa
Summary: Nearby Showers
Clouds: Few Clouds
Visibility: 6 miles , 10 km
Cloud details: Few Clouds 1200 ft
Few Clouds 2000 ft
2020/09/29 09:50 EGPO 290950Z 18012KT 9999 VCSH FEW012 FEW020CB 12/10 Q1012
 
EGPI - Islay, Inner Hebrides
Distance from station: WSW 172mi, 276km
Updated: 29/09/2020 10:50
Few Clouds
Few Clouds
 Wind from S
Wind: S 10 mph , 17 km/h
Temperature: 13°C
Dew Point: 10°C
Humidity: 82%
Barometer: 1014 hPa
Clouds: Few Clouds
Visibility: 6 miles , 10 km
Cloud details: Few Clouds 1000 ft
2020/09/29 09:50 EGPI 290950Z 18009KT 9999 FEW010 13/10 Q1014
EGPU - Tiree, Inner Hebrides
Distance from station: W 172mi, 276km
Updated: 29/09/2020 10:20
Mostly cloudy
Mostly cloudy
 Wind from SSW
Wind: SSW 12 mph , 19 km/h
Temperature: 12°C
Dew Point: 9°C
Humidity: 82%
Barometer: 1013 hPa
Clouds: Mostly cloudy
Visibility: 6 miles , 10 km
Cloud details: Partly cloudy 2000 ft
Mostly cloudy 4900 ft
2020/09/29 09:20 EGPU 290920Z 20010KT 9999 SCT020 BKN049 12/09 Q1013
 
EGPB - Sumburgh, Shetland
Distance from station: NNE 208mi, 332km
Updated: 29/09/2020 10:50
Few Clouds
Few Clouds
 Wind from SW
Wind: SW 9 mph , 15 km/h
Temperature: 12°C
Dew Point: 11°C
Humidity: 94%
Barometer: 1013 hPa
Clouds: Few Clouds
Visibility: 6 miles , 10 km
Cloud details: Few Clouds 900 ft
2020/09/29 09:50 EGPB 290950Z 23008KT 9999 FEW009 12/11 Q1013 NOSIG
-->